createdAt,value
2022-12-12T00:01:44.994Z,112.11
2022-12-12T00:04:11.965Z,112.23
2022-12-12T00:06:38.615Z,112.21
2022-12-12T00:09:05.730Z,111.93
2022-12-12T00:11:32.467Z,111.71
2022-12-12T00:13:59.189Z,111.90
2022-12-12T00:16:26.177Z,112.00
2022-12-12T00:18:54.257Z,112.18
2022-12-12T00:21:24.406Z,112.06
2022-12-12T00:23:52.202Z,111.52
2022-12-12T00:26:27.930Z,112.14
2022-12-12T00:28:55.339Z,111.41
2022-12-12T00:31:22.161Z,111.68
2022-12-12T00:33:50.440Z,111.15
2022-12-12T00:36:22.359Z,111.00
2022-12-12T00:38:49.771Z,111.27
2022-12-12T00:41:18.640Z,111.38
2022-12-12T00:43:45.895Z,111.15
2022-12-12T00:46:15.376Z,111.04
2022-12-12T00:48:42.190Z,110.91
2022-12-12T00:51:11.224Z,111.29
2022-12-12T00:53:38.589Z,111.26
2022-12-12T00:56:06.263Z,111.76
2022-12-12T00:58:33.578Z,112.39
2022-12-12T01:01:06.570Z,112.72
2022-12-12T01:03:38.997Z,112.95
2022-12-12T01:06:06.893Z,113.13
2022-12-12T01:08:33.729Z,112.77
2022-12-12T01:11:01.062Z,112.67
2022-12-12T01:13:28.220Z,112.36
2022-12-12T01:15:55.123Z,111.80
2022-12-12T01:18:22.208Z,112.26
2022-12-12T01:20:48.957Z,112.42
2022-12-12T01:23:15.769Z,112.61
2022-12-12T01:25:42.498Z,112.06
2022-12-12T01:28:10.799Z,112.51
2022-12-12T01:30:37.639Z,112.52
2022-12-12T01:33:04.403Z,113.13
2022-12-12T01:35:33.302Z,113.03
2022-12-12T01:38:00.181Z,112.91
2022-12-12T01:40:29.126Z,112.86
2022-12-12T01:42:56.059Z,112.81
2022-12-12T01:46:03.074Z,112.58
2022-12-12T01:48:34.246Z,112.46
2022-12-12T01:51:05.090Z,112.45
2022-12-12T01:53:33.709Z,112.48
2022-12-12T01:56:05.354Z,112.73
2022-12-12T01:58:32.635Z,112.66
2022-12-12T02:00:59.412Z,112.93
2022-12-12T02:03:26.923Z,112.61
2022-12-12T02:05:56.816Z,112.32
2022-12-12T02:08:25.536Z,112.14
2022-12-12T02:10:52.456Z,111.83
2022-12-12T02:13:25.993Z,111.49
2022-12-12T02:16:03.850Z,111.14
2022-12-12T02:18:55.766Z,110.46
2022-12-12T02:21:42.090Z,110.49
2022-12-12T02:24:30.708Z,110.27
2022-12-12T02:27:05.377Z,110.52
2022-12-12T02:30:16.272Z,110.96
2022-12-12T02:33:14.259Z,111.28
2022-12-12T02:36:10.132Z,111.50
2022-12-12T02:38:55.973Z,112.02
2022-12-12T02:41:39.081Z,112.04
2022-12-12T02:44:26.013Z,112.36
2022-12-12T02:47:01.062Z,112.13
2022-12-12T02:49:36.660Z,112.68
2022-12-12T02:52:04.122Z,112.82
2022-12-12T02:54:30.930Z,113.06
2022-12-12T02:56:59.928Z,113.04
2022-12-12T02:59:39.712Z,113.33
2022-12-12T03:02:22.948Z,113.48
2022-12-12T03:05:27.285Z,113.29
2022-12-12T03:08:09.382Z,113.53
2022-12-12T03:11:14.797Z,114.35
2022-12-12T03:13:51.633Z,113.99
2022-12-12T03:16:23.706Z,113.27
2022-12-12T03:19:22.796Z,112.75
2022-12-12T03:21:54.491Z,112.15
2022-12-12T03:24:41.984Z,112.12
2022-12-12T03:27:31.446Z,111.87
2022-12-12T03:30:02.925Z,110.97
2022-12-12T03:33:00.422Z,110.52
2022-12-12T03:35:34.915Z,110.34
2022-12-12T03:38:07.435Z,110.09
2022-12-12T03:40:46.282Z,109.75
2022-12-12T03:43:17.633Z,110.17
2022-12-12T03:45:47.402Z,110.00
2022-12-12T03:48:28.793Z,110.07
2022-12-12T03:50:57.715Z,109.30
2022-12-12T03:53:36.634Z,109.88
2022-12-12T03:56:27.140Z,109.88
2022-12-12T03:59:04.025Z,110.46
2022-12-12T04:01:50.446Z,110.55
2022-12-12T04:04:31.486Z,110.86
2022-12-12T04:07:07.223Z,111.41
2022-12-12T04:09:52.382Z,111.32
2022-12-12T04:12:50.357Z,111.36
2022-12-12T04:15:35.213Z,111.40
2022-12-12T04:18:16.935Z,111.38
2022-12-12T04:21:13.521Z,111.61
2022-12-12T04:23:58.439Z,111.52
2022-12-12T04:26:40.345Z,111.10
2022-12-12T04:29:19.142Z,111.03
2022-12-12T04:31:58.460Z,111.07
2022-12-12T04:34:33.125Z,111.25
2022-12-12T04:37:01.516Z,110.76
2022-12-12T04:39:30.236Z,111.36
2022-12-12T04:41:59.257Z,111.59
2022-12-12T04:44:28.451Z,111.13
2022-12-12T04:46:58.140Z,111.97
2022-12-12T04:49:29.142Z,112.16
2022-12-12T04:52:01.844Z,111.89
2022-12-12T04:54:56.360Z,111.97
2022-12-12T04:57:54.711Z,112.11
2022-12-12T05:00:23.225Z,112.24
2022-12-12T05:02:58.309Z,111.77
2022-12-12T05:06:01.024Z,111.80
2022-12-12T05:08:38.149Z,111.84
2022-12-12T05:11:06.743Z,111.36
2022-12-12T05:13:36.491Z,111.38
2022-12-12T05:16:13.105Z,110.74
2022-12-12T05:18:39.786Z,111.06
2022-12-12T05:21:06.607Z,110.53
2022-12-12T05:23:34.901Z,110.06
2022-12-12T05:26:10.148Z,110.65
2022-12-12T05:28:37.494Z,110.35
2022-12-12T05:31:04.496Z,110.13
2022-12-12T05:33:31.278Z,110.12
2022-12-12T05:35:57.943Z,109.96
2022-12-12T05:38:24.568Z,109.62
2022-12-12T05:40:51.298Z,110.29
2022-12-12T05:43:18.009Z,110.73
2022-12-12T05:45:44.821Z,110.51
2022-12-12T05:48:11.816Z,110.29
2022-12-12T05:50:38.544Z,110.13
2022-12-12T05:53:05.298Z,110.22
2022-12-12T05:55:32.054Z,109.65
2022-12-12T05:57:59.214Z,109.58
2022-12-12T06:00:26.119Z,109.49
2022-12-12T06:02:53.482Z,109.71
2022-12-12T06:05:20.573Z,110.30
2022-12-12T06:07:47.355Z,110.55
2022-12-12T06:10:14.326Z,110.64
2022-12-12T06:12:41.119Z,111.18
2022-12-12T06:15:08.724Z,111.55
2022-12-12T06:17:35.562Z,111.26
2022-12-12T06:20:02.658Z,111.02
2022-12-12T06:22:29.425Z,110.73
2022-12-12T06:24:56.137Z,110.89
2022-12-12T06:27:22.838Z,111.22
2022-12-12T06:29:49.541Z,110.76
2022-12-12T06:32:16.326Z,110.76
2022-12-12T06:34:43.055Z,110.38
2022-12-12T06:37:15.621Z,110.44
2022-12-12T06:39:44.143Z,110.29
2022-12-12T06:42:10.830Z,110.15
2022-12-12T06:44:37.579Z,110.00
2022-12-12T06:47:04.716Z,109.75
2022-12-12T06:49:31.471Z,109.46
2022-12-12T06:51:58.127Z,109.76
2022-12-12T06:54:26.243Z,109.19
2022-12-12T06:56:52.998Z,109.04
2022-12-12T06:59:19.726Z,108.40
2022-12-12T07:01:47.000Z,108.35
2022-12-12T07:04:14.644Z,107.72
2022-12-12T07:06:41.643Z,107.20
2022-12-12T07:09:08.543Z,107.08
2022-12-12T07:11:35.206Z,106.45
2022-12-12T07:14:03.773Z,104.79
2022-12-12T07:16:30.443Z,104.80
2022-12-12T07:18:57.193Z,108.88
2022-12-12T07:21:24.302Z,105.53
2022-12-12T07:23:51.152Z,105.05
2022-12-12T07:26:20.341Z,104.66
2022-12-12T07:28:47.752Z,103.72
2022-12-12T07:31:17.917Z,103.31
2022-12-12T07:33:45.118Z,103.54
2022-12-12T07:36:16.029Z,103.95
2022-12-12T07:38:43.700Z,104.12
2022-12-12T07:41:13.526Z,103.94
2022-12-12T07:43:44.272Z,103.81
2022-12-12T07:46:15.529Z,104.49
2022-12-12T07:48:42.928Z,105.00
2022-12-12T07:51:09.773Z,104.89
2022-12-12T07:53:36.630Z,105.11
2022-12-12T07:56:08.308Z,104.54
2022-12-12T07:58:35.802Z,104.93
2022-12-12T08:01:14.070Z,105.18
2022-12-12T08:03:42.239Z,104.98
2022-12-12T08:06:09.035Z,104.78
2022-12-12T08:08:36.013Z,105.00
2022-12-12T08:11:08.426Z,104.64
2022-12-12T08:13:37.052Z,104.78
2022-12-12T08:16:05.550Z,104.03
2022-12-12T08:18:32.801Z,104.10
2022-12-12T08:21:00.076Z,104.22
2022-12-12T08:23:26.807Z,104.01
2022-12-12T08:25:53.564Z,103.53
2022-12-12T08:28:20.328Z,103.78
2022-12-12T08:30:51.085Z,103.75
2022-12-12T08:33:18.357Z,104.02
2022-12-12T08:35:45.052Z,104.04
2022-12-12T08:38:11.972Z,104.04
2022-12-12T08:40:39.321Z,103.28
2022-12-12T08:43:06.153Z,102.36
2022-12-12T08:45:33.246Z,102.28
2022-12-12T08:48:00.077Z,103.04
2022-12-12T08:50:26.758Z,103.29
2022-12-12T08:52:55.020Z,101.93
2022-12-12T08:55:21.657Z,101.78
2022-12-12T08:57:48.378Z,101.43
2022-12-12T09:00:15.654Z,102.88
2022-12-12T09:02:42.925Z,103.06
2022-12-12T09:05:10.338Z,102.41
2022-12-12T09:07:37.624Z,100.19
2022-12-12T09:10:04.842Z,98.51
2022-12-12T09:12:34.519Z,98.93
2022-12-12T09:15:04.015Z,97.90
2022-12-12T09:17:30.927Z,97.42
2022-12-12T09:19:57.624Z,97.33
2022-12-12T09:22:24.374Z,97.57
2022-12-12T09:24:51.061Z,98.38
2022-12-12T09:27:18.066Z,99.12
2022-12-12T09:29:44.875Z,98.93
2022-12-12T09:32:11.968Z,99.64
2022-12-12T09:34:39.136Z,99.64
2022-12-12T09:37:06.068Z,98.26
2022-12-12T09:39:32.982Z,97.39
2022-12-12T09:42:17.710Z,96.63
2022-12-12T09:44:44.619Z,96.85
2022-12-12T09:47:18.165Z,97.50
2022-12-12T09:49:55.273Z,97.47
2022-12-12T09:52:32.682Z,96.46
2022-12-12T09:55:02.604Z,96.50
2022-12-12T09:57:40.563Z,97.94
2022-12-12T10:00:13.407Z,97.77
2022-12-12T10:02:46.412Z,97.16
2022-12-12T10:05:18.906Z,97.39
2022-12-12T10:08:07.636Z,97.29
2022-12-12T10:10:41.087Z,97.58
2022-12-12T10:13:15.880Z,98.42
2022-12-12T10:15:47.409Z,97.96
2022-12-12T10:18:28.716Z,97.63
2022-12-12T10:20:59.168Z,97.86
2022-12-12T10:23:53.767Z,97.00
2022-12-12T10:26:30.800Z,97.16
2022-12-12T10:29:09.998Z,97.31
2022-12-12T10:32:27.839Z,97.07
2022-12-12T10:35:29.993Z,97.18
2022-12-12T10:38:20.302Z,96.09
2022-12-12T10:41:27.080Z,95.44
2022-12-12T10:44:02.305Z,96.41
2022-12-12T10:46:44.421Z,96.09
2022-12-12T10:49:23.933Z,96.71
2022-12-12T10:51:51.963Z,96.41
2022-12-12T10:54:22.587Z,97.06
2022-12-12T10:57:04.625Z,97.45
2022-12-12T10:59:31.743Z,97.70
2022-12-12T11:02:10.019Z,98.07
2022-12-12T11:04:37.456Z,96.91
2022-12-12T11:07:04.207Z,96.47
2022-12-12T11:09:31.135Z,94.94
2022-12-12T11:12:03.876Z,94.70
2022-12-12T11:14:39.776Z,94.97
2022-12-12T11:17:27.354Z,95.01
2022-12-12T11:19:57.046Z,95.14
2022-12-12T11:22:25.506Z,95.95
2022-12-12T11:24:53.152Z,94.88
2022-12-12T11:27:25.323Z,95.44
2022-12-12T11:29:53.718Z,96.78
2022-12-12T11:32:22.770Z,96.54
2022-12-12T11:34:56.785Z,96.82
2022-12-12T11:37:28.381Z,97.23
2022-12-12T11:39:57.684Z,97.09
2022-12-12T11:42:29.052Z,97.39
2022-12-12T11:45:21.915Z,96.55
2022-12-12T11:47:49.190Z,96.49
2022-12-12T11:50:25.375Z,96.62
2022-12-12T11:53:01.540Z,95.45
2022-12-12T11:55:57.827Z,94.40
2022-12-12T11:58:59.692Z,91.40
2022-12-12T12:01:38.167Z,87.96
2022-12-12T12:04:48.184Z,87.86
2022-12-12T12:07:28.490Z,85.38
2022-12-12T12:10:06.978Z,84.88
2022-12-12T12:12:44.397Z,85.23
2022-12-12T12:15:32.339Z,84.74
2022-12-12T12:18:27.967Z,98.45
2022-12-12T12:21:01.031Z,86.93
2022-12-12T12:23:48.852Z,87.41
2022-12-12T12:26:47.431Z,87.43
2022-12-12T12:29:25.938Z,87.92
2022-12-12T12:31:58.614Z,88.86
2022-12-12T12:34:32.879Z,89.17
2022-12-12T12:37:22.615Z,89.36
2022-12-12T12:40:13.998Z,89.87
2022-12-12T12:43:01.106Z,89.12
2022-12-12T12:45:30.882Z,88.76
2022-12-12T12:48:10.701Z,87.73
2022-12-12T12:50:45.452Z,88.18
2022-12-12T12:53:29.139Z,88.08
2022-12-12T12:56:02.285Z,87.77
2022-12-12T12:58:34.081Z,88.85
2022-12-12T13:01:14.224Z,87.79
2022-12-12T13:03:56.643Z,88.86
2022-12-12T13:06:43.827Z,88.25
2022-12-12T13:09:22.985Z,90.07
2022-12-12T13:11:54.509Z,89.41
2022-12-12T13:14:49.389Z,89.20
2022-12-12T13:17:23.323Z,90.18
2022-12-12T13:19:53.791Z,89.90
2022-12-12T13:22:32.731Z,90.45
2022-12-12T13:25:15.336Z,91.49
2022-12-12T13:27:47.793Z,91.17
2022-12-12T13:30:27.506Z,92.92
2022-12-12T13:33:21.498Z,91.76
2022-12-12T13:35:52.942Z,91.33
2022-12-12T13:38:38.966Z,92.27
2022-12-12T13:41:08.028Z,93.13
2022-12-12T13:43:37.854Z,92.63
2022-12-12T13:46:34.868Z,91.92
2022-12-12T13:49:13.934Z,93.03
2022-12-12T13:51:44.952Z,92.63
2022-12-12T13:54:14.381Z,92.98
2022-12-12T13:57:09.081Z,92.43
2022-12-12T13:59:54.195Z,92.37
2022-12-12T14:02:24.108Z,93.21
2022-12-12T14:05:16.748Z,92.45
2022-12-12T14:07:52.792Z,93.09
2022-12-12T14:10:27.074Z,93.58
2022-12-12T14:12:54.999Z,94.65
2022-12-12T14:15:27.741Z,94.31
2022-12-12T14:18:01.992Z,93.85
2022-12-12T14:20:31.194Z,94.07
2022-12-12T14:23:09.555Z,93.10
2022-12-12T14:25:37.787Z,92.47
2022-12-12T14:28:21.833Z,92.53
2022-12-12T14:31:15.645Z,93.16
2022-12-12T14:34:20.639Z,91.98
2022-12-12T14:37:05.637Z,92.34
2022-12-12T14:39:59.728Z,93.01
2022-12-12T14:43:20.918Z,92.98
2022-12-12T14:45:34.637Z,94.43
2022-12-12T14:48:31.558Z,93.27
2022-12-12T14:51:28.934Z,92.24
2022-12-12T14:53:58.845Z,92.75
2022-12-12T14:56:55.078Z,93.32
2022-12-12T14:59:26.687Z,93.72
2022-12-12T15:01:59.537Z,94.31
2022-12-12T15:04:33.940Z,95.66
2022-12-12T15:07:06.584Z,96.77
2022-12-12T15:09:39.354Z,96.29
2022-12-12T15:12:18.120Z,96.52
2022-12-12T15:14:48.013Z,96.55
2022-12-12T15:17:21.555Z,94.62
2022-12-12T15:20:06.096Z,94.88
2022-12-12T15:22:38.047Z,94.48
2022-12-12T15:25:16.270Z,92.84
2022-12-12T15:27:50.742Z,92.69
2022-12-12T15:30:34.201Z,92.40
2022-12-12T15:33:02.114Z,92.98
2022-12-12T15:35:29.206Z,92.52
2022-12-12T15:38:01.796Z,92.07
2022-12-12T15:40:30.906Z,91.37
2022-12-12T15:43:07.581Z,91.37
2022-12-12T15:45:37.753Z,91.09
2022-12-12T15:48:07.733Z,93.53
2022-12-12T15:50:43.943Z,92.61
2022-12-12T15:53:22.413Z,93.39
2022-12-12T15:56:12.014Z,94.51
2022-12-12T15:58:45.217Z,95.62
2022-12-12T16:01:20.760Z,96.18
2022-12-12T16:04:06.533Z,95.66
2022-12-12T16:06:34.585Z,98.19
2022-12-12T16:09:07.499Z,96.86
2022-12-12T16:11:46.900Z,97.26
2022-12-12T16:14:41.782Z,97.13
2022-12-12T16:17:20.419Z,96.84
2022-12-12T16:19:53.387Z,97.22
2022-12-12T16:22:46.019Z,97.07
2022-12-12T16:25:21.392Z,97.86
2022-12-12T16:28:10.384Z,98.48
2022-12-12T16:30:39.469Z,98.39
2022-12-12T16:33:23.912Z,98.07
2022-12-12T16:35:50.825Z,98.91
2022-12-12T16:38:18.768Z,99.14
2022-12-12T16:40:47.831Z,99.61
2022-12-12T16:43:16.610Z,99.78
2022-12-12T16:45:43.751Z,99.93
2022-12-12T16:48:25.892Z,100.00
2022-12-12T16:50:56.692Z,101.14
2022-12-12T16:53:23.464Z,101.35
2022-12-12T16:55:51.687Z,101.08
2022-12-12T16:58:21.230Z,100.97
2022-12-12T17:00:48.676Z,100.83
2022-12-12T17:03:16.732Z,100.11
2022-12-12T17:05:45.285Z,99.28
2022-12-12T17:08:15.177Z,100.10
2022-12-12T17:10:42.821Z,99.83
2022-12-12T17:13:19.003Z,99.61
2022-12-12T17:15:46.300Z,99.45
2022-12-12T17:18:22.723Z,99.59
2022-12-12T17:20:50.656Z,99.22
2022-12-12T17:23:30.206Z,99.16
2022-12-12T17:26:03.652Z,98.67
2022-12-12T17:28:34.667Z,99.61
2022-12-12T17:31:02.788Z,99.51
2022-12-12T17:33:30.022Z,99.32
2022-12-12T17:35:59.030Z,99.49
2022-12-12T17:38:25.765Z,99.83
2022-12-12T17:40:54.042Z,99.61
2022-12-12T17:43:20.978Z,98.89
2022-12-12T17:46:00.634Z,99.29
2022-12-12T17:48:30.042Z,99.65
2022-12-12T17:50:58.245Z,99.26
2022-12-12T17:53:25.275Z,96.89
2022-12-12T17:56:01.566Z,95.36
2022-12-12T17:58:40.822Z,95.31
2022-12-12T18:01:10.898Z,92.31
2022-12-12T18:03:37.666Z,91.03
2022-12-12T18:06:05.157Z,90.85
2022-12-12T18:08:32.291Z,94.62
2022-12-12T18:10:59.237Z,90.23
2022-12-12T18:13:26.295Z,87.81
2022-12-12T18:15:59.677Z,86.61
2022-12-12T18:18:28.351Z,86.20
2022-12-12T18:20:55.068Z,84.58
2022-12-12T18:23:21.883Z,85.71
2022-12-12T18:25:48.666Z,85.58
2022-12-12T18:28:16.750Z,87.35
2022-12-12T18:30:43.485Z,87.89
2022-12-12T18:33:10.767Z,90.20
2022-12-12T18:35:37.579Z,85.67
2022-12-12T18:38:04.314Z,84.58
2022-12-12T18:40:31.057Z,84.03
2022-12-12T18:42:57.917Z,83.04
2022-12-12T18:45:24.613Z,84.13
2022-12-12T18:47:51.348Z,83.10
2022-12-12T18:50:23.036Z,85.04
2022-12-12T18:52:51.129Z,84.09
2022-12-12T18:55:18.370Z,85.01
2022-12-12T18:57:45.422Z,85.03
2022-12-12T19:00:14.603Z,96.04
2022-12-12T19:02:41.595Z,87.16
2022-12-12T19:05:13.261Z,86.75
2022-12-12T19:07:41.056Z,87.32
2022-12-12T19:10:09.206Z,86.91
2022-12-12T19:12:36.442Z,87.67
2022-12-12T19:15:19.420Z,87.48
2022-12-12T19:17:47.643Z,87.60
2022-12-12T19:20:14.791Z,87.62
2022-12-12T19:22:46.651Z,89.02
2022-12-12T19:25:18.662Z,89.57
2022-12-12T19:27:46.081Z,89.17
2022-12-12T19:30:16.660Z,90.49
2022-12-12T19:32:49.306Z,91.02
2022-12-12T19:35:18.136Z,92.41
2022-12-12T19:37:45.473Z,91.77
2022-12-12T19:40:14.259Z,92.28
2022-12-12T19:42:43.006Z,93.82
2022-12-12T19:45:10.200Z,93.78
2022-12-12T19:47:38.432Z,93.52
2022-12-12T19:50:06.342Z,94.04
2022-12-12T19:52:33.292Z,94.30
2022-12-12T19:55:01.655Z,95.07
2022-12-12T19:57:29.719Z,95.26
2022-12-12T19:59:56.441Z,95.60
2022-12-12T20:02:23.690Z,95.44
2022-12-12T20:04:53.884Z,96.04
2022-12-12T20:07:21.599Z,96.98
2022-12-12T20:09:48.334Z,97.41
2022-12-12T20:12:17.435Z,97.99
2022-12-12T20:14:45.696Z,98.15
2022-12-12T20:17:15.434Z,98.41
2022-12-12T20:19:43.163Z,98.48
2022-12-12T20:22:10.365Z,97.71
2022-12-12T20:24:37.865Z,98.59
2022-12-12T20:27:04.748Z,98.50
2022-12-12T20:29:31.682Z,98.26
2022-12-12T20:31:59.811Z,99.44
2022-12-12T20:34:27.184Z,99.72
2022-12-12T20:36:55.736Z,99.67
2022-12-12T20:39:27.434Z,99.37
2022-12-12T20:41:54.615Z,99.16
2022-12-12T20:44:23.336Z,99.23
2022-12-12T20:46:50.289Z,100.29
2022-12-12T20:49:19.813Z,101.12
2022-12-12T20:51:56.398Z,101.35
2022-12-12T20:54:25.217Z,101.15
2022-12-12T20:56:52.692Z,100.33
2022-12-12T20:59:19.584Z,100.49
2022-12-12T21:01:47.316Z,100.26
2022-12-12T21:04:14.585Z,98.88
2022-12-12T21:06:44.458Z,99.66
2022-12-12T21:09:19.179Z,99.66
2022-12-12T21:11:49.804Z,99.42
2022-12-12T21:14:16.653Z,99.56
2022-12-12T21:16:43.511Z,100.16
2022-12-12T21:19:13.794Z,100.08
2022-12-12T21:21:42.976Z,99.84
2022-12-12T21:24:12.207Z,99.90
2022-12-12T21:26:39.480Z,99.97
2022-12-12T21:29:06.798Z,100.28
2022-12-12T21:31:42.263Z,99.45
2022-12-12T21:34:12.584Z,98.95
2022-12-12T21:36:39.364Z,99.78
2022-12-12T21:39:07.030Z,99.86
2022-12-12T21:41:35.099Z,99.62
2022-12-12T21:44:02.053Z,98.59
2022-12-12T21:46:29.619Z,98.71
2022-12-12T21:49:16.581Z,97.96
2022-12-12T21:51:43.738Z,98.41
2022-12-12T21:54:12.836Z,99.24
2022-12-12T21:56:40.603Z,99.72
2022-12-12T21:59:07.439Z,100.16
2022-12-12T22:01:34.370Z,99.07
2022-12-12T22:04:01.561Z,98.32
2022-12-12T22:06:31.774Z,97.79
2022-12-12T22:09:00.644Z,98.31
2022-12-12T22:11:41.454Z,98.35
2022-12-12T22:14:19.726Z,96.59
2022-12-12T22:16:47.176Z,96.55
2022-12-12T22:19:15.334Z,95.86
2022-12-12T22:21:47.670Z,94.69
2022-12-12T22:24:19.188Z,93.72
2022-12-12T22:26:48.877Z,94.45
2022-12-12T22:29:20.306Z,94.52
2022-12-12T22:31:50.121Z,96.22
2022-12-12T22:34:22.156Z,95.46
2022-12-12T22:36:50.647Z,92.99
2022-12-12T22:39:23.779Z,92.85
2022-12-12T22:41:51.668Z,91.45
2022-12-12T22:44:20.402Z,91.46
2022-12-12T22:46:48.961Z,90.66
2022-12-12T22:49:19.268Z,89.33
2022-12-12T22:51:47.368Z,90.79
2022-12-12T22:54:15.528Z,90.13
2022-12-12T22:56:42.641Z,89.89
2022-12-12T22:59:12.838Z,89.69
2022-12-12T23:01:40.726Z,87.99
2022-12-12T23:04:11.453Z,86.25
2022-12-12T23:06:38.954Z,86.64
2022-12-12T23:09:15.408Z,86.41
2022-12-12T23:11:44.039Z,87.30
2022-12-12T23:14:14.903Z,85.96
2022-12-12T23:16:41.924Z,86.14
2022-12-12T23:19:09.237Z,88.17
2022-12-12T23:21:37.384Z,86.29
2022-12-12T23:24:05.611Z,86.72
2022-12-12T23:26:34.449Z,88.28
2022-12-12T23:29:01.580Z,89.79
2022-12-12T23:31:31.458Z,90.92
2022-12-12T23:34:01.135Z,90.31
2022-12-12T23:36:28.637Z,89.03
2022-12-12T23:39:00.339Z,89.70
2022-12-12T23:41:28.114Z,89.82
2022-12-12T23:43:56.819Z,91.42
2022-12-12T23:46:33.771Z,91.79
2022-12-12T23:49:06.461Z,91.98
2022-12-12T23:51:39.539Z,92.59
2022-12-12T23:54:09.113Z,93.65
2022-12-12T23:56:35.832Z,94.10
2022-12-12T23:59:02.973Z,94.50
